Time;durP1;ratioP1;P1;durP2;ratioP2;P2;SDS_P1;SDS_P2;PMS_P1;PMS_P2;Temp;Humidity;BMP_temperature;BMP_pressure;BME280_temperature;BME280_humidity;BME280_pressure;Samples;Min_cycle;Max_cycle;Signal;HPM_P1;HPM_P2
2020/12/07 00:00:40;;;;;;;34.38;14.27;;;4.90;99.90;;;;;;5031147;28;20041;-55
2020/12/07 00:03:27;;;;;;;39.13;15.93;;;4.90;99.90;;;;;;5032033;28;20037;-55
2020/12/07 00:06:20;;;;;;;37.70;16.10;;;4.80;99.90;;;;;;5030671;28;20044;-55
2020/12/07 00:09:07;;;;;;;35.75;13.20;;;4.80;99.90;;;;;;5031794;28;20052;-54
2020/12/07 00:11:53;;;;;;;35.80;15.60;;;4.90;99.90;;;;;;5029606;28;20037;-56
2020/12/07 00:14:39;;;;;;;34.28;14.77;;;5.00;99.90;;;;;;5016806;28;20044;-56
2020/12/07 00:17:26;;;;;;;37.03;15.65;;;5.00;99.90;;;;;;5029847;28;20084;-55
2020/12/07 00:20:12;;;;;;;31.63;13.05;;;4.80;99.90;;;;;;5031105;28;20041;-56
2020/12/07 00:22:58;;;;;;;32.28;14.48;;;4.90;99.90;;;;;;5032252;28;20486;-55
2020/12/07 00:25:45;;;;;;;34.30;14.48;;;4.90;99.90;;;;;;5035834;28;20045;-56
2020/12/07 00:28:31;;;;;;;29.00;12.88;;;5.00;99.90;;;;;;5034267;28;20046;-56
2020/12/07 00:31:17;;;;;;;27.42;12.30;;;5.10;99.90;;;;;;5035039;28;20077;-55
2020/12/07 00:34:03;;;;;;;27.70;12.98;;;5.00;99.90;;;;;;5033851;28;20037;-56
2020/12/07 00:36:49;;;;;;;32.10;13.05;;;5.10;99.90;;;;;;5036013;28;20046;-53
2020/12/07 00:39:36;;;;;;;30.83;11.80;;;5.10;99.90;;;;;;5033969;28;20073;-54
2020/12/07 00:42:22;;;;;;;31.27;13.27;;;4.90;99.90;;;;;;5034523;28;20072;-54
2020/12/07 00:45:08;;;;;;;30.27;12.38;;;5.10;99.90;;;;;;5033714;28;20490;-55
2020/12/07 00:47:54;;;;;;;28.58;12.05;;;5.10;99.90;;;;;;5034743;28;20051;-56
2020/12/07 00:50:41;;;;;;;27.90;11.80;;;5.00;99.90;;;;;;5033704;28;20072;-56
2020/12/07 00:53:27;;;;;;;26.17;11.63;;;5.00;99.90;;;;;;5033284;28;20049;-54
2020/12/07 00:56:13;;;;;;;27.63;11.95;;;5.00;99.90;;;;;;5034589;28;20037;-56
2020/12/07 00:58:59;;;;;;;22.33;11.02;;;5.00;99.90;;;;;;5034029;28;20059;-54
2020/12/07 01:01:46;;;;;;;24.00;9.45;;;5.00;99.90;;;;;;5033421;28;20108;-55
2020/12/07 01:04:32;;;;;;;23.65;11.73;;;5.10;99.90;;;;;;5034661;28;20044;-56
2020/12/07 01:07:18;;;;;;;25.67;10.88;;;4.80;99.90;;;;;;5034034;28;20372;-55
2020/12/07 01:10:04;;;;;;;28.83;12.45;;;4.80;99.90;;;;;;5033758;28;20124;-54
2020/12/07 01:12:50;;;;;;;28.17;12.25;;;4.90;99.90;;;;;;5033858;28;20041;-55
2020/12/07 01:15:36;;;;;;;34.10;13.02;;;4.90;99.90;;;;;;5034398;28;20034;-55
2020/12/07 01:18:22;;;;;;;30.17;12.95;;;4.90;99.90;;;;;;5033259;28;20037;-55
2020/12/07 01:21:08;;;;;;;33.40;14.25;;;4.90;99.90;;;;;;5034221;28;20104;-55
2020/12/07 01:23:54;;;;;;;39.13;16.25;;;4.90;99.90;;;;;;5034121;28;20176;-53
2020/12/07 01:26:41;;;;;;;45.92;17.25;;;4.90;99.90;;;;;;5034307;28;20029;-55
2020/12/07 01:29:27;;;;;;;46.17;18.02;;;4.80;99.90;;;;;;5033571;28;20532;-55
2020/12/07 01:32:13;;;;;;;41.15;18.08;;;4.70;99.90;;;;;;5033077;28;20390;-52
2020/12/07 01:34:59;;;;;;;44.47;17.08;;;4.90;99.90;;;;;;5032821;28;20041;-55
2020/12/07 01:37:45;;;;;;;41.45;16.45;;;4.80;99.90;;;;;;5032733;28;20084;-53
2020/12/07 01:40:31;;;;;;;43.60;18.45;;;4.80;99.90;;;;;;5033443;28;20103;-56
2020/12/07 01:43:18;;;;;;;46.42;17.83;;;4.90;99.90;;;;;;5033380;28;20042;-56
2020/12/07 01:46:06;;;;;;;40.55;16.85;;;4.90;99.90;;;;;;5032150;28;20033;-56
2020/12/07 01:48:56;;;;;;;36.92;16.27;;;4.90;99.90;;;;;;5031932;28;20091;-56
2020/12/07 01:51:42;;;;;;;40.28;16.33;;;4.90;99.90;;;;;;5033271;28;20494;-53
2020/12/07 01:54:28;;;;;;;37.80;15.77;;;4.80;99.90;;;;;;5017908;28;20048;-53
2020/12/07 01:57:14;;;;;;;33.63;14.55;;;4.90;99.90;;;;;;5032665;28;20112;-56
2020/12/07 02:00:00;;;;;;;35.28;14.25;;;4.90;99.90;;;;;;5033354;28;20049;-56
2020/12/07 02:02:47;;;;;;;32.30;14.43;;;4.80;99.90;;;;;;5032405;28;20045;-53
2020/12/07 02:05:34;;;;;;;29.02;13.32;;;4.90;99.90;;;;;;5033756;28;20124;-57
2020/12/07 02:08:20;;;;;;;35.53;15.07;;;4.90;99.90;;;;;;5018792;28;20476;-56
2020/12/07 02:11:06;;;;;;;35.92;14.80;;;4.80;99.90;;;;;;5032657;28;20037;-55
2020/12/07 02:13:53;;;;;;;39.97;16.65;;;4.80;99.90;;;;;;5032027;28;20466;-56
2020/12/07 02:16:39;;;;;;;33.10;14.70;;;4.90;99.90;;;;;;5034118;28;20124;-56
2020/12/07 02:19:25;;;;;;;38.28;15.50;;;4.80;99.90;;;;;;5032278;28;20060;-56
2020/12/07 02:22:11;;;;;;;39.85;17.05;;;4.90;99.90;;;;;;5033092;28;20048;-56
2020/12/07 02:24:57;;;;;;;43.08;17.77;;;4.80;99.90;;;;;;5031946;28;20116;-56
2020/12/07 02:27:43;;;;;;;36.58;15.35;;;4.80;99.90;;;;;;5033602;28;20034;-56
2020/12/07 02:30:29;;;;;;;31.60;13.85;;;4.80;99.90;;;;;;5031485;28;20041;-57
2020/12/07 02:33:15;;;;;;;44.28;17.27;;;4.80;99.90;;;;;;5031940;28;20029;-55
2020/12/07 02:36:01;;;;;;;38.08;16.52;;;4.70;99.90;;;;;;5017325;28;20044;-56
2020/12/07 02:38:47;;;;;;;44.40;15.88;;;4.70;99.90;;;;;;5031865;28;20068;-56
2020/12/07 02:41:33;;;;;;;40.95;16.40;;;4.80;99.90;;;;;;5032908;28;20038;-55
2020/12/07 02:44:19;;;;;;;38.67;16.70;;;4.80;99.90;;;;;;5031814;28;20033;-54
2020/12/07 02:47:05;;;;;;;37.97;15.85;;;4.80;99.90;;;;;;5031380;28;20168;-54
2020/12/07 02:49:51;;;;;;;41.83;17.52;;;4.80;99.90;;;;;;5031412;28;20092;-56
2020/12/07 02:52:38;;;;;;;43.47;16.95;;;4.90;99.90;;;;;;5032079;28;20521;-56
2020/12/07 02:55:24;;;;;;;41.08;15.70;;;4.80;99.90;;;;;;5032481;28;20041;-56
2020/12/07 02:58:10;;;;;;;48.20;17.13;;;4.70;99.90;;;;;;5031168;28;20033;-56
2020/12/07 03:00:56;;;;;;;42.97;17.55;;;4.70;99.90;;;;;;5031186;28;20475;-56
2020/12/07 03:03:42;;;;;;;37.85;16.52;;;4.70;99.90;;;;;;5030741;28;20037;-56
2020/12/07 03:06:28;;;;;;;42.47;18.90;;;4.70;99.90;;;;;;5031269;28;20048;-56
2020/12/07 03:09:14;;;;;;;44.50;17.25;;;4.70;99.90;;;;;;5032851;28;20033;-55
2020/12/07 03:12:01;;;;;;;39.75;17.33;;;4.70;99.90;;;;;;5032026;28;20485;-54
2020/12/07 03:14:47;;;;;;;42.25;17.98;;;4.70;99.90;;;;;;5031548;28;20049;-55
2020/12/07 03:17:33;;;;;;;42.47;17.25;;;4.70;99.90;;;;;;5032031;28;20494;-56
2020/12/07 03:20:19;;;;;;;45.78;17.08;;;4.60;99.90;;;;;;5032085;28;20034;-54
2020/12/07 03:23:05;;;;;;;43.05;18.17;;;4.70;99.90;;;;;;5031457;28;20037;-56
2020/12/07 03:25:51;;;;;;;48.85;18.35;;;4.60;99.90;;;;;;5030956;28;20402;-53
2020/12/07 03:28:37;;;;;;;42.67;18.30;;;4.60;99.90;;;;;;5032663;28;20033;-53
2020/12/07 03:31:23;;;;;;;53.47;19.63;;;4.60;99.90;;;;;;5031579;28;20406;-54
2020/12/07 03:34:11;;;;;;;44.78;18.05;;;4.50;99.90;;;;;;5031824;28;20045;-56
2020/12/07 03:36:57;;;;;;;51.47;19.30;;;4.60;99.90;;;;;;5030684;28;20121;-56
2020/12/07 03:39:43;;;;;;;50.72;19.15;;;4.60;99.90;;;;;;5031474;28;20121;-56
2020/12/07 03:42:29;;;;;;;50.20;18.35;;;4.60;99.90;;;;;;5031969;28;20455;-53
2020/12/07 03:45:15;;;;;;;50.22;20.55;;;4.50;99.90;;;;;;5030526;28;20037;-56
2020/12/07 03:48:01;;;;;;;53.25;20.70;;;4.50;99.90;;;;;;5032327;28;20067;-56
2020/12/07 03:50:47;;;;;;;41.00;17.75;;;4.40;99.90;;;;;;5032513;28;20123;-55
2020/12/07 03:53:36;;;;;;;47.83;16.73;;;4.50;99.90;;;;;;5031745;28;20045;-56
2020/12/07 03:56:22;;;;;;;57.28;19.95;;;4.50;99.90;;;;;;5032244;28;20069;-55
2020/12/07 03:59:08;;;;;;;51.58;20.60;;;4.40;99.90;;;;;;5033416;28;20022;-55
2020/12/07 04:01:55;;;;;;;47.38;17.75;;;4.30;99.90;;;;;;5034730;28;20454;-54
2020/12/07 04:04:54;;;;;;;51.60;20.48;;;4.30;99.90;;;;;;5036086;28;20124;-55
2020/12/07 04:07:40;;;;;;;48.80;19.08;;;4.30;99.90;;;;;;5019884;28;20064;-49
2020/12/07 04:10:26;;;;;;;53.30;20.65;;;4.20;99.90;;;;;;5035032;28;20367;-56
2020/12/07 04:13:12;;;;;;;51.08;19.48;;;4.30;99.90;;;;;;5036045;28;20041;-56
2020/12/07 04:15:59;;;;;;;54.55;20.73;;;4.30;99.90;;;;;;5034162;28;20475;-55
2020/12/07 04:18:45;;;;;;;48.95;19.40;;;4.30;99.90;;;;;;5034322;28;20045;-54
2020/12/07 04:21:31;;;;;;;46.42;20.33;;;4.30;99.90;;;;;;5034414;28;20056;-55
2020/12/07 04:24:17;;;;;;;43.95;17.25;;;4.30;99.90;;;;;;5033685;28;20048;-56
2020/12/07 04:27:03;;;;;;;43.55;17.63;;;4.30;99.90;;;;;;5033157;28;20033;-54
2020/12/07 04:29:49;;;;;;;48.05;18.45;;;4.30;99.90;;;;;;5034200;28;20602;-54
2020/12/07 04:32:35;;;;;;;42.72;17.88;;;4.30;99.90;;;;;;5035301;28;20037;-56
2020/12/07 04:35:21;;;;;;;41.45;17.02;;;4.30;99.90;;;;;;5034260;28;20041;-56
2020/12/07 04:38:08;;;;;;;45.70;17.40;;;4.30;99.90;;;;;;5033112;28;20551;-56
2020/12/07 04:40:55;;;;;;;48.65;18.48;;;4.30;99.90;;;;;;5027283;28;20033;-55
2020/12/07 04:43:42;;;;;;;42.20;16.13;;;4.20;99.90;;;;;;5031844;28;20068;-52
2020/12/07 04:46:29;;;;;;;42.33;17.20;;;4.30;99.90;;;;;;5030951;28;20494;-55
2020/12/07 04:49:16;;;;;;;49.38;18.67;;;4.20;99.90;;;;;;5019613;28;20502;-54
2020/12/07 04:52:03;;;;;;;42.90;18.17;;;4.20;99.90;;;;;;5033568;28;20116;-53
2020/12/07 04:54:51;;;;;;;41.15;17.75;;;4.20;99.90;;;;;;5033177;28;20037;-53
2020/12/07 04:57:37;;;;;;;44.60;15.50;;;4.20;99.90;;;;;;5018558;28;20065;-51
2020/12/07 05:00:26;;;;;;;37.83;14.88;;;4.20;99.90;;;;;;5032043;28;20037;-54
2020/12/07 05:03:12;;;;;;;33.63;14.45;;;4.20;99.90;;;;;;5031405;28;20105;-52
2020/12/07 05:06:00;;;;;;;41.85;15.50;;;4.20;99.90;;;;;;5033887;28;20041;-57
2020/12/07 05:08:46;;;;;;;36.72;13.82;;;4.20;99.90;;;;;;5032530;28;20025;-53
2020/12/07 05:11:32;;;;;;;44.65;17.58;;;4.20;99.90;;;;;;5018259;28;20447;-54
2020/12/07 05:14:20;;;;;;;42.83;16.83;;;4.20;99.90;;;;;;5031309;28;20120;-54
2020/12/07 05:17:06;;;;;;;43.22;16.92;;;4.10;99.90;;;;;;5033151;28;20049;-52
2020/12/07 05:19:52;;;;;;;37.40;13.75;;;4.10;99.90;;;;;;5033173;28;20034;-54
2020/12/07 05:22:41;;;;;;;38.33;14.25;;;4.10;99.90;;;;;;5032592;28;20056;-52
2020/12/07 05:25:28;;;;;;;38.75;14.50;;;4.10;99.90;;;;;;5033363;28;20118;-55
2020/12/07 05:28:23;;;;;;;40.22;13.52;;;4.10;99.90;;;;;;5018419;28;20374;-53
2020/12/07 05:31:24;;;;;;;35.88;13.15;;;4.10;99.90;;;;;;5018707;28;20029;-54
2020/12/07 05:34:10;;;;;;;27.60;9.73;;;4.10;99.90;;;;;;5032449;28;20092;-54
2020/12/07 05:36:56;;;;;;;33.80;13.13;;;4.10;99.90;;;;;;5031057;28;20049;-53
2020/12/07 05:39:42;;;;;;;32.35;13.02;;;4.00;99.90;;;;;;5031529;28;20059;-52
2020/12/07 05:42:30;;;;;;;27.67;11.18;;;4.00;99.90;;;;;;5031703;28;20033;-54
2020/12/07 05:45:16;;;;;;;30.00;12.50;;;4.00;99.90;;;;;;5018962;28;20091;-56
2020/12/07 05:48:03;;;;;;;29.02;11.38;;;4.10;99.90;;;;;;5018947;28;20071;-56
2020/12/07 05:50:51;;;;;;;26.30;11.02;;;4.00;99.90;;;;;;5033260;28;20120;-55
2020/12/07 05:53:39;;;;;;;27.98;12.23;;;4.00;99.90;;;;;;5018102;28;20036;-55
2020/12/07 05:56:30;;;;;;;31.58;11.60;;;4.00;99.90;;;;;;5032894;28;20045;-50
2020/12/07 05:59:28;;;;;;;31.55;12.25;;;4.10;99.90;;;;;;5017904;28;20397;-52
2020/12/07 06:02:16;;;;;;;27.20;11.23;;;4.00;99.90;;;;;;5019086;28;20025;-54
2020/12/07 06:05:03;;;;;;;27.35;10.85;;;4.00;99.90;;;;;;5032284;28;20076;-52
2020/12/07 06:08:20;;;;;;;29.60;12.38;;;4.00;99.90;;;;;;5032361;28;20047;-52
2020/12/07 06:11:12;;;;;;;29.88;11.63;;;4.10;99.90;;;;;;5031126;28;20079;-53
2020/12/07 06:13:58;;;;;;;27.75;10.95;;;4.00;99.90;;;;;;5016716;28;20103;-52
2020/12/07 06:16:46;;;;;;;34.60;10.50;;;4.10;99.90;;;;;;5032010;28;20132;-53
2020/12/07 06:19:33;;;;;;;24.58;11.32;;;4.10;99.90;;;;;;5017693;28;20033;-54
2020/12/07 06:22:23;;;;;;;24.90;11.00;;;4.10;99.90;;;;;;5017552;28;20044;-52
2020/12/07 06:25:11;;;;;;;30.52;10.85;;;4.00;99.90;;;;;;5031772;28;20044;-53
2020/12/07 06:28:02;;;;;;;27.95;11.43;;;4.10;99.90;;;;;;5018197;28;20579;-53
2020/12/07 06:30:50;;;;;;;30.75;10.50;;;4.10;99.90;;;;;;5031322;28;20397;-49
2020/12/07 06:33:45;;;;;;;27.85;10.93;;;4.10;99.90;;;;;;5017227;28;20037;-50
2020/12/07 06:36:39;;;;;;;28.17;12.57;;;4.10;99.90;;;;;;5020415;28;20129;-54
2020/12/07 06:39:25;;;;;;;24.23;10.80;;;4.20;99.90;;;;;;5030461;28;20041;-55
2020/12/07 06:42:13;;;;;;;27.42;12.38;;;4.20;99.90;;;;;;5015326;28;20030;-52
2020/12/07 06:44:59;;;;;;;29.80;11.95;;;4.10;99.90;;;;;;5032410;28;20029;-52
2020/12/07 06:47:47;;;;;;;27.52;11.50;;;4.20;99.90;;;;;;5032582;28;20420;-55
2020/12/07 06:50:38;;;;;;;37.88;12.90;;;4.10;99.90;;;;;;5032553;28;20037;-53
2020/12/07 06:53:40;;;;;;;35.92;13.43;;;4.20;99.90;;;;;;5029655;28;20525;-56
2020/12/07 06:56:26;;;;;;;;;;;4.10;99.90;;;;;;5019585;28;20052;-55
2020/12/07 06:59:12;;;;;;;33.05;13.07;;;4.10;99.90;;;;;;5031171;28;19920;-56
2020/12/07 07:01:58;;;;;;;28.23;11.52;;;4.10;99.90;;;;;;5030544;28;20037;-55
2020/12/07 07:04:55;;;;;;;34.10;12.15;;;4.20;99.90;;;;;;5031120;28;20033;-55
2020/12/07 07:07:42;;;;;;;33.22;11.68;;;4.10;99.90;;;;;;5031661;28;20041;-56
2020/12/07 07:10:28;;;;;;;30.52;11.30;;;4.20;99.90;;;;;;5030605;28;20037;-56
2020/12/07 07:13:14;;;;;;;31.25;12.43;;;4.20;99.90;;;;;;5031669;28;20422;-56
2020/12/07 07:16:01;;;;;;;23.90;10.02;;;4.10;99.90;;;;;;5030463;28;20037;-55
2020/12/07 07:18:47;;;;;;;28.45;11.60;;;4.20;99.90;;;;;;5028084;28;20416;-52
2020/12/07 07:21:49;;;;;;;29.80;11.95;;;4.20;99.90;;;;;;5029547;28;20518;-55
2020/12/07 07:30:43;;;;;;;27.27;11.70;;;4.10;99.90;;;;;;5028843;28;20030;-56
2020/12/07 07:33:31;;;;;;;31.13;12.00;;;4.20;99.90;;;;;;5028693;28;20048;-56
2020/12/07 07:36:25;;;;;;;32.28;12.07;;;4.10;99.90;;;;;;5028758;28;20056;-54
2020/12/07 07:39:14;;;;;;;29.20;11.40;;;4.10;99.90;;;;;;5031436;28;20049;-55
2020/12/07 07:42:13;;;;;;;30.55;13.18;;;4.10;99.90;;;;;;5011559;28;20037;-52
2020/12/07 07:45:02;;;;;;;27.73;11.38;;;4.10;99.90;;;;;;5024348;28;20040;-54
2020/12/07 08:07:05;;;;;;;27.50;11.13;;;4.10;99.90;;;;;;5011350;28;20069;-53
2020/12/07 08:12:54;;;;;;;29.23;12.45;;;4.00;99.90;;;;;;5019210;28;20033;-54
2020/12/07 08:18:35;;;;;;;23.98;11.27;;;4.20;99.90;;;;;;5029825;28;20490;-54
2020/12/07 08:21:33;;;;;;;26.45;11.48;;;4.20;99.90;;;;;;5030236;28;20029;-56
2020/12/07 08:24:20;;;;;;;27.25;10.95;;;4.30;99.90;;;;;;5029774;28;20038;-55
2020/12/07 08:27:11;;;;;;;25.65;10.93;;;4.40;99.90;;;;;;5030955;28;20154;-56
2020/12/07 08:30:10;;;;;;;23.25;10.27;;;4.50;99.90;;;;;;5030195;28;20410;-56
2020/12/07 08:33:11;;;;;;;24.67;10.00;;;4.50;99.90;;;;;;5029390;28;20500;-56
2020/12/07 08:35:59;;;;;;;25.92;10.02;;;4.50;99.90;;;;;;5029562;28;20085;-55
2020/12/07 08:38:46;;;;;;;24.77;10.13;;;4.60;99.90;;;;;;5029045;28;20095;-56
2020/12/07 08:41:34;;;;;;;32.67;12.07;;;4.60;99.90;;;;;;5029604;28;20037;-56
2020/12/07 08:44:20;;;;;;;24.48;9.80;;;4.70;99.90;;;;;;5031879;28;20041;-54
2020/12/07 08:47:10;;;;;;;38.85;10.75;;;4.70;99.90;;;;;;5032337;28;20498;-52
2020/12/07 08:49:56;;;;;;;26.20;9.60;;;4.70;99.90;;;;;;5032568;28;20030;-55
2020/12/07 08:52:42;;;;;;;23.23;10.95;;;4.80;99.90;;;;;;5033759;28;20034;-54
2020/12/07 08:55:31;;;;;;;28.77;10.82;;;4.80;99.90;;;;;;5019996;28;20037;-53
2020/12/07 08:58:17;;;;;;;21.80;10.77;;;4.80;99.90;;;;;;5033018;28;20037;-51
2020/12/07 09:01:06;;;;;;;22.90;9.63;;;4.90;99.90;;;;;;5033228;28;20116;-51
2020/12/07 09:03:52;;;;;;;22.73;10.10;;;4.90;99.90;;;;;;5033014;28;20108;-55
2020/12/07 09:06:40;;;;;;;23.45;10.25;;;5.00;99.90;;;;;;5035028;28;20076;-51
2020/12/07 09:09:26;;;;;;;22.08;10.25;;;5.10;99.90;;;;;;5032492;28;20121;-53
2020/12/07 09:12:12;;;;;;;24.55;10.45;;;5.20;99.90;;;;;;5022552;28;20108;-54
2020/12/07 09:14:58;;;;;;;24.42;9.80;;;5.20;99.90;;;;;;5033468;28;20138;-53
2020/12/07 09:17:44;;;;;;;19.77;9.52;;;5.10;99.90;;;;;;5033951;28;20037;-54
2020/12/07 09:20:30;;;;;;;24.08;9.73;;;5.20;99.90;;;;;;5032996;28;20037;-54
2020/12/07 09:23:17;;;;;;;22.75;10.18;;;5.30;99.90;;;;;;5034141;28;20037;-54
2020/12/07 09:26:03;;;;;;;22.52;10.60;;;5.40;99.90;;;;;;5032860;28;20461;-54
2020/12/07 09:28:55;;;;;;;21.00;8.75;;;5.50;99.90;;;;;;5033543;28;20048;-54
2020/12/07 09:31:41;;;;;;;27.27;9.85;;;5.60;99.90;;;;;;5019094;28;20506;-54
2020/12/07 09:34:27;;;;;;;21.30;9.32;;;5.90;99.90;;;;;;5032744;28;20407;-55
2020/12/07 09:37:14;;;;;;;20.88;9.20;;;6.10;99.90;;;;;;5033833;28;20052;-55
2020/12/07 09:40:00;;;;;;;15.18;8.55;;;6.10;99.90;;;;;;5034001;28;20063;-56
2020/12/07 09:42:47;;;;;;;25.38;9.23;;;6.00;99.90;;;;;;5032085;28;20025;-56
2020/12/07 09:45:33;;;;;;;17.90;8.20;;;5.90;99.90;;;;;;5032352;28;20029;-56
2020/12/07 09:48:19;;;;;;;17.15;8.05;;;5.80;99.90;;;;;;5032211;28;20042;-58
2020/12/07 09:51:05;;;;;;;17.05;8.68;;;6.00;99.90;;;;;;5030781;28;20025;-56
2020/12/07 09:53:51;;;;;;;19.00;8.30;;;6.00;99.90;;;;;;5030638;28;20076;-57
2020/12/07 09:56:37;;;;;;;18.27;8.27;;;6.10;99.90;;;;;;5031371;28;20116;-57
2020/12/07 09:59:23;;;;;;;17.08;7.55;;;6.50;99.90;;;;;;5032061;28;20045;-56
2020/12/07 10:02:09;;;;;;;16.65;7.95;;;6.80;99.90;;;;;;5030477;28;20026;-58
2020/12/07 10:04:55;;;;;;;16.65;8.50;;;6.60;99.90;;;;;;5032062;28;20125;-55
2020/12/07 10:07:42;;;;;;;19.52;8.82;;;6.40;99.90;;;;;;5030300;28;20124;-57
2020/12/07 10:10:28;;;;;;;21.05;8.68;;;6.30;99.90;;;;;;5022316;28;20078;-55
2020/12/07 10:13:14;;;;;;;14.60;7.30;;;6.20;99.90;;;;;;5013262;28;20486;-57
2020/12/07 10:16:00;;;;;;;17.38;8.90;;;6.10;99.90;;;;;;5011951;28;20092;-57
2020/12/07 10:18:47;;;;;;;17.15;9.13;;;6.00;99.90;;;;;;5012732;28;20379;-57
2020/12/07 10:21:33;;;;;;;18.38;8.13;;;6.00;99.90;;;;;;5012144;28;20054;-57
2020/12/07 10:24:20;;;;;;;15.38;7.97;;;6.00;99.90;;;;;;5013157;28;20414;-57
2020/12/07 10:27:06;;;;;;;15.63;8.52;;;6.10;99.90;;;;;;5012700;28;20069;-57
2020/12/07 10:29:52;;;;;;;17.10;8.25;;;5.90;99.90;;;;;;5011441;28;20557;-55
2020/12/07 10:32:39;;;;;;;17.30;7.97;;;6.10;99.90;;;;;;5011499;28;20061;-55
2020/12/07 10:35:25;;;;;;;17.55;8.85;;;6.20;99.90;;;;;;5010697;28;20033;-57
2020/12/07 10:38:11;;;;;;;16.75;7.97;;;6.40;99.90;;;;;;5012918;28;20487;-57
2020/12/07 10:40:57;;;;;;;15.93;7.85;;;6.30;99.90;;;;;;5027224;28;20044;-55
2020/12/07 10:43:46;;;;;;;19.10;9.13;;;6.50;99.90;;;;;;5030437;28;20032;-57
2020/12/07 10:46:32;;;;;;;16.40;7.32;;;6.80;99.90;;;;;;5031568;28;20048;-57
2020/12/07 10:49:18;;;;;;;17.02;8.07;;;6.90;99.90;;;;;;5031624;28;20504;-57
2020/12/07 10:52:04;;;;;;;18.52;9.18;;;6.80;99.90;;;;;;5032632;28;20033;-56
2020/12/07 10:54:50;;;;;;;16.77;8.55;;;6.80;99.90;;;;;;5031210;28;20091;-53
2020/12/07 10:57:37;;;;;;;17.08;8.95;;;6.40;99.90;;;;;;5030894;28;20033;-53
2020/12/07 11:00:23;;;;;;;18.10;8.32;;;6.50;99.90;;;;;;5031702;28;20120;-54
2020/12/07 11:03:09;;;;;;;18.13;8.23;;;6.30;99.90;;;;;;5030982;28;20040;-56
2020/12/07 11:05:56;;;;;;;17.25;8.05;;;6.30;99.90;;;;;;5029048;28;20147;-57
2020/12/07 11:08:50;;;;;;;15.57;8.68;;;6.60;99.90;;;;;;5029979;28;20041;-58
2020/12/07 11:11:36;;;;;;;16.08;8.32;;;6.60;99.90;;;;;;5031491;28;20057;-56
2020/12/07 11:14:23;;;;;;;18.08;8.13;;;6.60;99.90;;;;;;5030864;28;20026;-56
2020/12/07 11:17:09;;;;;;;14.48;7.22;;;6.60;99.90;;;;;;5030015;28;20410;-55
2020/12/07 11:19:55;;;;;;;13.48;7.40;;;6.50;99.90;;;;;;5031018;28;20037;-55
2020/12/07 11:22:41;;;;;;;12.45;6.85;;;6.40;99.90;;;;;;5030202;28;20383;-55
2020/12/07 11:25:27;;;;;;;18.30;8.48;;;6.10;99.90;;;;;;5030076;28;20469;-57
2020/12/07 11:28:13;;;;;;;17.00;8.15;;;6.10;99.90;;;;;;5030825;28;20052;-55
2020/12/07 11:30:59;;;;;;;17.02;8.30;;;6.00;99.90;;;;;;5030410;28;20040;-55
2020/12/07 11:33:45;;;;;;;15.15;8.15;;;6.10;99.90;;;;;;5031319;28;20045;-55
2020/12/07 11:36:31;;;;;;;14.63;8.25;;;6.20;99.90;;;;;;5030414;28;20129;-64
2020/12/07 11:45:12;;;;;;;18.92;8.25;;;6.20;99.90;;;;;;5029798;28;20041;-85
2020/12/07 11:47:58;;;;;;;17.83;8.27;;;6.20;99.90;;;;;;5029383;28;20038;-65
2020/12/07 11:50:44;;;;;;;19.40;10.30;;;6.30;99.90;;;;;;5031704;28;20037;-66
2020/12/07 11:53:30;;;;;;;20.33;9.50;;;6.90;99.90;;;;;;5031141;28;20461;-66
2020/12/07 11:56:16;;;;;;;16.95;9.27;;;7.90;99.90;;;;;;5030230;28;20059;-66
2020/12/07 11:59:04;;;;;;;15.38;8.13;;;8.80;99.90;;;;;;5030327;28;20033;-66
2020/12/07 12:01:50;;;;;;;17.75;8.50;;;8.80;99.90;;;;;;5015790;28;20076;-66
2020/12/07 12:04:36;;;;;;;14.95;7.88;;;8.70;99.90;;;;;;5030604;28;20037;-65
2020/12/07 12:07:22;;;;;;;16.77;8.70;;;9.30;99.90;;;;;;5030341;28;20457;-66
2020/12/07 12:10:08;;;;;;;15.60;7.75;;;9.70;99.90;;;;;;5015702;28;20073;-66
2020/12/07 12:12:54;;;;;;;12.98;6.40;;;11.20;99.90;;;;;;5029896;28;20091;-66
2020/12/07 12:15:40;;;;;;;12.68;6.88;;;11.00;99.90;;;;;;5016041;28;20095;-65
2020/12/07 12:18:26;;;;;;;13.63;6.85;;;10.80;99.90;;;;;;5032375;28;20550;-66
2020/12/07 12:21:12;;;;;;;13.43;6.90;;;10.10;99.90;;;;;;5033217;28;20116;-65
2020/12/07 12:24:02;;;;;;;13.80;6.88;;;8.70;99.90;;;;;;5033676;28;20037;-65
2020/12/07 12:26:49;;;;;;;14.85;7.45;;;8.20;99.90;;;;;;5018438;28;20052;-65
2020/12/07 12:29:35;;;;;;;14.93;7.82;;;8.50;99.90;;;;;;5033279;28;20113;-65
2020/12/07 12:32:21;;;;;;;17.63;8.25;;;8.00;99.90;;;;;;5033562;28;20072;-65
2020/12/07 12:35:07;;;;;;;17.65;8.50;;;7.60;99.90;;;;;;5033381;28;20037;-65
2020/12/07 12:37:53;;;;;;;14.60;7.93;;;7.20;99.90;;;;;;5032397;28;20056;-65
2020/12/07 12:40:40;;;;;;;17.00;8.88;;;7.20;99.90;;;;;;5018964;28;20037;-64
2020/12/07 12:43:26;;;;;;;18.73;8.90;;;7.20;99.90;;;;;;5034816;28;20044;-64
2020/12/07 12:46:13;;;;;;;20.40;10.13;;;7.20;99.90;;;;;;5034009;28;20065;-64
2020/12/07 12:48:59;;;;;;;21.05;10.25;;;7.00;99.90;;;;;;5018610;28;20025;-64
2020/12/07 12:51:46;;;;;;;23.17;11.23;;;6.80;99.90;;;;;;5032348;28;20413;-65
2020/12/07 12:54:33;;;;;;;23.30;11.10;;;6.90;99.90;;;;;;5017590;28;20048;-64
2020/12/07 12:57:19;;;;;;;20.88;10.38;;;6.80;99.90;;;;;;5019965;28;20041;-64
2020/12/07 13:00:06;;;;;;;21.65;10.52;;;6.70;99.90;;;;;;5033831;28;20026;-64
2020/12/07 13:02:52;;;;;;;23.23;10.85;;;6.70;99.90;;;;;;5032713;28;20044;-65
2020/12/07 13:05:40;;;;;;;22.17;11.57;;;6.60;99.90;;;;;;5034398;28;20049;-64
2020/12/07 13:08:26;;;;;;;24.17;11.85;;;6.70;99.90;;;;;;5032709;28;20030;-65
2020/12/07 13:11:12;;;;;;;27.17;11.63;;;6.60;99.90;;;;;;5018914;28;20033;-63
2020/12/07 13:14:00;;;;;;;25.83;11.63;;;6.70;99.90;;;;;;5033288;28;20049;-66
2020/12/07 13:17:01;;;;;;;22.70;10.98;;;6.50;99.90;;;;;;5034129;28;20042;-65
2020/12/07 13:19:47;;;;;;;20.30;10.25;;;6.60;99.90;;;;;;5019158;28;20033;-66
2020/12/07 13:22:52;;;;;;;26.10;11.60;;;6.60;99.90;;;;;;5032410;28;20044;-65
2020/12/07 13:25:45;;;;;;;24.63;11.15;;;6.80;99.90;;;;;;5018293;28;20060;-67
2020/12/07 13:28:31;;;;;;;22.67;11.23;;;6.70;99.90;;;;;;5031124;28;20026;-65
2020/12/07 13:31:17;;;;;;;22.70;10.93;;;6.70;99.90;;;;;;5032135;28;20048;-63
2020/12/07 13:34:03;;;;;;;24.33;10.95;;;6.70;99.90;;;;;;5034193;28;20402;-65
2020/12/07 13:36:49;;;;;;;23.55;11.27;;;6.70;99.90;;;;;;5033241;28;20064;-65
2020/12/07 13:39:35;;;;;;;21.35;10.35;;;6.70;99.90;;;;;;5018270;28;20605;-65
2020/12/07 13:42:21;;;;;;;24.27;10.38;;;6.60;99.90;;;;;;5031766;28;20087;-65
2020/12/07 13:45:07;;;;;;;23.73;10.82;;;6.50;99.90;;;;;;5032308;28;20040;-65
2020/12/07 13:47:54;;;;;;;23.10;11.43;;;6.50;99.90;;;;;;5032504;28;20033;-65
2020/12/07 13:50:40;;;;;;;21.85;10.73;;;6.60;99.90;;;;;;5031911;28;20056;-65
2020/12/07 13:53:26;;;;;;;26.63;11.02;;;6.60;99.90;;;;;;5030458;28;20129;-65
2020/12/07 13:56:12;;;;;;;20.58;10.02;;;6.50;99.90;;;;;;5031838;28;20045;-65
2020/12/07 13:58:58;;;;;;;17.75;8.93;;;6.60;99.90;;;;;;5031802;28;20030;-66
2020/12/07 14:01:45;;;;;;;21.52;10.93;;;6.60;99.90;;;;;;5032287;28;20371;-65
2020/12/07 14:04:41;;;;;;;19.65;10.18;;;6.50;99.90;;;;;;5017508;28;20030;-65
2020/12/07 14:07:31;;;;;;;18.15;9.13;;;6.60;99.90;;;;;;5033484;28;20045;-65
2020/12/07 14:10:18;;;;;;;22.25;9.70;;;6.50;99.90;;;;;;5033162;28;20034;-65
2020/12/07 14:13:04;;;;;;;19.00;8.82;;;6.50;99.90;;;;;;5017174;28;20156;-65
2020/12/07 14:15:50;;;;;;;16.60;8.57;;;6.60;99.90;;;;;;5031259;28;20040;-65
2020/12/07 14:18:51;;;;;;;18.67;9.20;;;6.50;99.90;;;;;;5030945;28;20034;-65
2020/12/07 14:40:12;;;;;;;17.08;8.68;;;6.50;99.90;;;;;;5031072;28;20095;-65
2020/12/07 14:42:58;;;;;;;22.60;9.43;;;6.40;99.90;;;;;;5017156;28;20565;-67
2020/12/07 14:48:44;;;;;;;19.25;9.45;;;6.30;99.90;;;;;;5031595;28;20087;-64
2020/12/07 14:54:30;;;;;;;18.30;7.85;;;6.40;99.90;;;;;;5031415;28;20446;-64
2020/12/07 14:57:28;;;;;;;21.02;9.55;;;6.40;99.90;;;;;;5016661;28;20037;-64
2020/12/07 15:01:09;;;;;;;17.73;9.48;;;6.40;99.90;;;;;;5005986;28;20037;-63
2020/12/07 15:06:42;;;;;;;16.23;7.88;;;6.30;99.90;;;;;;5019074;28;20068;-61
2020/12/07 15:15:24;;;;;;;19.40;9.00;;;6.30;99.90;;;;;;5019152;28;20045;-64
2020/12/07 15:18:12;;;;;;;15.43;8.52;;;6.30;99.90;;;;;;5032194;28;20450;-64
2020/12/07 15:20:58;;;;;;;20.27;9.48;;;6.20;99.90;;;;;;5030646;28;20037;-62
2020/12/07 15:23:44;;;;;;;16.02;7.72;;;6.20;99.90;;;;;;5030732;28;20414;-63
2020/12/07 15:26:30;;;;;;;18.20;9.30;;;6.10;99.90;;;;;;5017019;28;20084;-62
2020/12/07 15:29:16;;;;;;;16.80;9.07;;;6.10;99.90;;;;;;5029916;28;20034;-64
2020/12/07 15:32:02;;;;;;;16.88;9.15;;;6.10;99.90;;;;;;5029638;28;20384;-63
2020/12/07 15:34:48;;;;;;;17.73;8.23;;;6.20;99.90;;;;;;5030086;28;20495;-63